X  CloseMetar Aviation Weather Data     EBBR Brussels

Temperature

14°C Temperature

11°C Dewpoint

82% Humidity



Wind

 8 KM/H

 5 MPH

 2 M/S

 4 KTS



140°
South East
Current Conditions

Clear Clear
Pressure 1025.92 (hPa) - 30.3 (in)
Visibility 6.2 (mi) - 10 (km)
Airport
Airport-code EBBR

Location Brussels 14 (km)

Metar:
EBBR 212250Z 14004KT CAVOK 14/11 Q1026 NOSIG

Time: 22-08-2019 00:50